Time;durP1;ratioP1;P1;durP2;ratioP2;P2;SDS_P1;SDS_P2;PMS_P1;PMS_P2;Temp;Humidity;BMP_temperature;BMP_pressure;BME280_temperature;BME280_humidity;BME280_pressure;Samples;Min_cycle;Max_cycle;Signal;HPM_P1;HPM_P2
2023/06/04 00:00:53;;;;;;;1.87;1.60;;;;;;;;;;5071029;28;20564;-54
2023/06/04 00:03:19;;;;;;;1.80;1.60;;;;;;;;;;5071020;28;20204;-54
2023/06/04 00:05:46;;;;;;;1.97;1.57;;;;;;;;;;5070968;28;20219;-53
2023/06/04 00:08:12;;;;;;;2.00;1.80;;;;;;;;;;5070801;28;20227;-54
2023/06/04 00:10:39;;;;;;;3.17;1.90;;;;;;;;;;5071076;28;20214;-53
2023/06/04 00:13:05;;;;;;;1.40;1.30;;;;;;;;;;5070873;28;20227;-53
2023/06/04 00:15:31;;;;;;;1.70;1.60;;;;;;;;;;5070908;28;20205;-54
2023/06/04 00:17:57;;;;;;;2.57;1.90;;;;;;;;;;5074517;28;20196;-54
2023/06/04 00:20:23;;;;;;;1.90;1.70;;;;;;;;;;5074750;28;20208;-53
2023/06/04 00:22:51;;;;;;;2.43;1.80;;;;;;;;;;5074865;28;20241;-54
2023/06/04 00:25:17;;;;;;;1.87;1.77;;;;;;;;;;5074353;28;20273;-54
2023/06/04 00:27:43;;;;;;;2.67;1.80;;;;;;;;;;5074874;28;20192;-53
2023/06/04 00:30:09;;;;;;;2.20;2.00;;;;;;;;;;5074525;28;20240;-54
2023/06/04 00:32:36;;;;;;;2.60;2.23;;;;;;;;;;5074597;28;20220;-53
2023/06/04 00:35:02;;;;;;;2.63;2.23;;;;;;;;;;5074383;28;20212;-53
2023/06/04 00:37:29;;;;;;;3.30;2.30;;;;;;;;;;5074371;28;20204;-54
2023/06/04 00:39:57;;;;;;;5.17;2.50;;;;;;;;;;5074302;28;20211;-54
2023/06/04 00:42:23;;;;;;;3.93;2.10;;;;;;;;;;5074257;28;20673;-54
2023/06/04 00:44:49;;;;;;;3.00;2.07;;;;;;;;;;5074445;28;20253;-53
2023/06/04 00:47:16;;;;;;;3.47;1.83;;;;;;;;;;5074130;28;20207;-54
2023/06/04 00:49:42;;;;;;;2.37;2.10;;;;;;;;;;5074274;28;20195;-53
2023/06/04 00:52:08;;;;;;;2.43;1.73;;;;;;;;;;5074032;28;20658;-53
2023/06/04 00:54:35;;;;;;;1.80;1.70;;;;;;;;;;5074303;28;20204;-54
2023/06/04 00:57:02;;;;;;;3.40;2.00;;;;;;;;;;5074011;28;20200;-53
2023/06/04 00:59:29;;;;;;;3.20;1.80;;;;;;;;;;5074106;28;20206;-53
2023/06/04 01:01:57;;;;;;;2.33;2.10;;;;;;;;;;5074018;28;20200;-53
2023/06/04 01:04:26;;;;;;;2.47;1.93;;;;;;;;;;5074020;28;20224;-53
2023/06/04 01:06:53;;;;;;;4.50;2.07;;;;;;;;;;5074028;28;20203;-53
2023/06/04 01:09:20;;;;;;;4.07;1.80;;;;;;;;;;5073893;28;20242;-53
2023/06/04 01:11:46;;;;;;;2.30;1.90;;;;;;;;;;5073766;28;20314;-53
2023/06/04 01:14:13;;;;;;;4.43;1.90;;;;;;;;;;5073703;28;20219;-53
2023/06/04 01:16:40;;;;;;;3.53;2.10;;;;;;;;;;5073820;28;20203;-53
2023/06/04 01:19:20;;;;;;;7.33;2.33;;;;;;;;;;5073796;28;20274;-53
2023/06/04 01:21:48;;;;;;;3.07;1.90;;;;;;;;;;5073758;28;20187;-54
2023/06/04 01:24:15;;;;;;;3.00;1.83;;;;;;;;;;5073317;28;20235;-53
2023/06/04 01:26:42;;;;;;;3.23;2.13;;;;;;;;;;5073585;28;20199;-53
2023/06/04 01:29:08;;;;;;;4.20;2.20;;;;;;;;;;5072544;28;20695;-53
2023/06/04 01:31:37;;;;;;;2.57;1.90;;;;;;;;;;5073528;28;20228;-53
2023/06/04 01:34:03;;;;;;;3.57;2.00;;;;;;;;;;5073399;28;20770;-54
2023/06/04 01:36:29;;;;;;;2.37;2.03;;;;;;;;;;5073446;28;20593;-53
2023/06/04 01:38:55;;;;;;;3.23;2.20;;;;;;;;;;5073266;28;20669;-53
2023/06/04 01:41:21;;;;;;;2.27;1.80;;;;;;;;;;5073330;28;20588;-53
2023/06/04 01:43:47;;;;;;;2.67;2.20;;;;;;;;;;5072039;28;20830;-53
2023/06/04 01:46:13;;;;;;;2.80;2.10;;;;;;;;;;5071914;28;20438;-53
2023/06/04 01:48:41;;;;;;;4.10;2.27;;;;;;;;;;5073158;28;20203;-53
2023/06/04 01:51:06;;;;;;;2.90;1.63;;;;;;;;;;5073133;28;20715;-54
2023/06/04 01:53:32;;;;;;;4.10;2.13;;;;;;;;;;5072028;28;20399;-53
2023/06/04 01:55:59;;;;;;;4.30;2.30;;;;;;;;;;5072964;28;20476;-53
2023/06/04 01:58:28;;;;;;;2.72;2.13;;;;;;;;;;5071585;28;20454;-54
2023/06/04 02:00:55;;;;;;;3.23;2.13;;;;;;;;;;5071632;28;20423;-54
2023/06/04 02:03:21;;;;;;;2.80;2.10;;;;;;;;;;5072928;28;20430;-53
2023/06/04 02:05:49;;;;;;;3.30;1.90;;;;;;;;;;5072796;28;20230;-54
2023/06/04 02:08:21;;;;;;;2.80;2.10;;;;;;;;;;5071485;28;20758;-53
2023/06/04 02:10:48;;;;;;;2.07;1.90;;;;;;;;;;5072846;28;20724;-53
2023/06/04 02:13:14;;;;;;;3.63;2.20;;;;;;;;;;5072481;28;20223;-53
2023/06/04 02:15:40;;;;;;;2.67;2.00;;;;;;;;;;5072606;28;20237;-54
2023/06/04 02:18:17;;;;;;;3.33;2.10;;;;;;;;;;5072647;28;20238;-53
2023/06/04 02:20:43;;;;;;;2.43;1.87;;;;;;;;;;5072563;28;20226;-53
2023/06/04 02:23:11;;;;;;;3.00;1.90;;;;;;;;;;5072301;28;20226;-54
2023/06/04 02:25:37;;;;;;;2.37;1.67;;;;;;;;;;5072281;28;20639;-54
2023/06/04 02:28:03;;;;;;;2.10;1.90;;;;;;;;;;5072386;28;20203;-53
2023/06/04 02:30:29;;;;;;;2.03;1.83;;;;;;;;;;5072377;28;20203;-54
2023/06/04 02:32:56;;;;;;;2.20;2.00;;;;;;;;;;5072014;28;20229;-53
2023/06/04 02:35:23;;;;;;;2.23;1.77;;;;;;;;;;5072119;28;20196;-53
2023/06/04 02:37:49;;;;;;;1.97;1.80;;;;;;;;;;5072215;28;20721;-54
2023/06/04 02:40:17;;;;;;;2.40;1.70;;;;;;;;;;5071820;28;20253;-54
2023/06/04 02:42:43;;;;;;;3.00;2.27;;;;;;;;;;5071944;28;20626;-53
2023/06/04 02:45:10;;;;;;;3.07;1.90;;;;;;;;;;5071952;28;20205;-53
2023/06/04 02:47:36;;;;;;;2.90;2.30;;;;;;;;;;5072189;28;20203;-54
2023/06/04 02:50:03;;;;;;;4.23;2.13;;;;;;;;;;5071947;28;20198;-54
2023/06/04 02:52:30;;;;;;;2.10;1.90;;;;;;;;;;5071825;28;20230;-54
2023/06/04 02:54:56;;;;;;;2.67;2.00;;;;;;;;;;5071748;28;20227;-54
2023/06/04 02:57:24;;;;;;;3.63;2.20;;;;;;;;;;5071788;28;20202;-54
2023/06/04 02:59:51;;;;;;;2.27;2.07;;;;;;;;;;5071777;28;20574;-54
2023/06/04 03:02:17;;;;;;;2.50;2.20;;;;;;;;;;5071912;28;20609;-54
2023/06/04 03:04:44;;;;;;;2.50;2.00;;;;;;;;;;5071538;28;20227;-54
2023/06/04 03:07:11;;;;;;;2.50;2.00;;;;;;;;;;5071103;28;20210;-54
2023/06/04 03:09:37;;;;;;;2.70;2.07;;;;;;;;;;5070887;28;20207;-54
2023/06/04 03:12:03;;;;;;;3.33;2.40;;;;;;;;;;5071364;28;20253;-55
2023/06/04 03:14:32;;;;;;;3.57;2.10;;;;;;;;;;5071712;28;20200;-54
2023/06/04 03:17:00;;;;;;;2.53;2.30;;;;;;;;;;5071435;28;20202;-54
2023/06/04 03:19:27;;;;;;;2.40;2.20;;;;;;;;;;5071356;28;20784;-54
2023/06/04 03:21:53;;;;;;;3.17;2.03;;;;;;;;;;5071184;28;20350;-54
2023/06/04 03:24:19;;;;;;;2.40;1.90;;;;;;;;;;5071241;28;20277;-54
2023/06/04 03:26:45;;;;;;;2.57;1.93;;;;;;;;;;5071380;28;20203;-54
2023/06/04 03:29:11;;;;;;;2.17;2.00;;;;;;;;;;5071196;28;20290;-54
2023/06/04 03:31:39;;;;;;;2.67;2.33;;;;;;;;;;5071430;28;20315;-54
2023/06/04 03:34:05;;;;;;;3.50;2.33;;;;;;;;;;5071356;28;20257;-55
2023/06/04 03:36:31;;;;;;;2.13;1.93;;;;;;;;;;5071376;28;20200;-54
2023/06/04 03:38:57;;;;;;;2.30;2.10;;;;;;;;;;5071073;28;20196;-54
2023/06/04 03:41:23;;;;;;;2.30;2.10;;;;;;;;;;5071083;28;20200;-54
2023/06/04 03:43:49;;;;;;;2.53;2.30;;;;;;;;;;5071457;28;20684;-54
2023/06/04 03:46:15;;;;;;;2.53;2.17;;;;;;;;;;5071113;28;20198;-54
2023/06/04 03:48:42;;;;;;;2.67;2.00;;;;;;;;;;5071108;28;20289;-55
2023/06/04 03:51:08;;;;;;;2.30;2.13;;;;;;;;;;5070435;28;20200;-54
2023/06/04 03:53:34;;;;;;;2.87;1.90;;;;;;;;;;5071266;28;20202;-54
2023/06/04 03:56:00;;;;;;;2.50;2.30;;;;;;;;;;5071153;28;20202;-55
2023/06/04 03:58:28;;;;;;;4.43;2.33;;;;;;;;;;5071102;28;20282;-55
2023/06/04 04:00:54;;;;;;;3.47;2.30;;;;;;;;;;5070960;28;20219;-55
2023/06/04 04:03:21;;;;;;;2.30;2.00;;;;;;;;;;5071112;28;20694;-55
2023/06/04 04:05:48;;;;;;;2.80;2.17;;;;;;;;;;5070996;28;20348;-55
2023/06/04 04:08:16;;;;;;;2.13;2.00;;;;;;;;;;5070783;28;20566;-55
2023/06/04 04:10:42;;;;;;;3.13;2.30;;;;;;;;;;5070877;28;20697;-54
2023/06/04 04:13:08;;;;;;;3.30;2.13;;;;;;;;;;5070977;28;20219;-54
2023/06/04 04:15:34;;;;;;;2.37;2.00;;;;;;;;;;5070957;28;20235;-55
2023/06/04 04:18:01;;;;;;;4.40;2.20;;;;;;;;;;5070763;28;20626;-54
2023/06/04 04:20:27;;;;;;;3.87;2.23;;;;;;;;;;5070767;28;20230;-54
2023/06/04 04:22:54;;;;;;;3.50;2.20;;;;;;;;;;5070856;28;20839;-54
2023/06/04 04:25:20;;;;;;;2.30;2.10;;;;;;;;;;5070941;28;20243;-54
2023/06/04 04:27:48;;;;;;;4.13;2.30;;;;;;;;;;5070907;28;20195;-55
2023/06/04 04:30:14;;;;;;;3.70;2.20;;;;;;;;;;5070684;28;20207;-54
2023/06/04 04:32:48;;;;;;;4.07;2.33;;;;;;;;;;5070727;28;20219;-54
2023/06/04 04:35:17;;;;;;;2.47;2.00;;;;;;;;;;5070615;28;20279;-54
2023/06/04 04:37:44;;;;;;;3.00;2.00;;;;;;;;;;5070617;28;20651;-54
2023/06/04 04:40:12;;;;;;;4.30;2.23;;;;;;;;;;5070603;28;20196;-54
2023/06/04 04:42:38;;;;;;;3.03;2.30;;;;;;;;;;5070785;28;20200;-54
2023/06/04 04:45:04;;;;;;;3.50;2.30;;;;;;;;;;5070691;28;20654;-54
2023/06/04 04:47:30;;;;;;;2.30;2.10;;;;;;;;;;5070414;28;20681;-55
2023/06/04 04:49:56;;;;;;;2.20;2.00;;;;;;;;;;5070559;28;20223;-54
2023/06/04 04:52:22;;;;;;;2.57;2.10;;;;;;;;;;5070433;28;20736;-54
2023/06/04 04:54:48;;;;;;;2.60;2.10;;;;;;;;;;5070710;28;20200;-54
2023/06/04 04:57:16;;;;;;;3.23;1.90;;;;;;;;;;5070405;28;20681;-54
2023/06/04 04:59:41;;;;;;;3.37;2.20;;;;;;;;;;5070549;28;20199;-54
2023/06/04 05:02:07;;;;;;;3.27;2.53;;;;;;;;;;5070522;28;20685;-54
2023/06/04 05:04:33;;;;;;;2.07;1.90;;;;;;;;;;5072998;28;20215;-55
2023/06/04 05:06:59;;;;;;;3.03;2.23;;;;;;;;;;5073866;28;20611;-55
2023/06/04 05:09:25;;;;;;;2.27;2.07;;;;;;;;;;5073810;28;20203;-55
2023/06/04 05:11:51;;;;;;;2.37;2.10;;;;;;;;;;5073880;28;20235;-55
2023/06/04 05:14:19;;;;;;;5.83;1.90;;;;;;;;;;5073788;28;20760;-55
2023/06/04 05:16:45;;;;;;;2.10;1.90;;;;;;;;;;5073839;28;20204;-55
2023/06/04 05:19:11;;;;;;;2.10;1.90;;;;;;;;;;5073651;28;20673;-55
2023/06/04 05:21:37;;;;;;;2.10;1.90;;;;;;;;;;5073765;28;20196;-55
2023/06/04 05:24:03;;;;;;;2.20;2.00;;;;;;;;;;5073614;28;20242;-55
2023/06/04 05:26:29;;;;;;;1.90;1.70;;;;;;;;;;5073521;28;20206;-55
2023/06/04 05:28:55;;;;;;;3.03;1.93;;;;;;;;;;5073598;28;20603;-55
2023/06/04 05:31:26;;;;;;;1.90;1.70;;;;;;;;;;5074207;28;20195;-55
2023/06/04 05:33:52;;;;;;;2.00;1.70;;;;;;;;;;5073728;28;20337;-53
2023/06/04 05:36:18;;;;;;;1.83;1.70;;;;;;;;;;5073428;28;20302;-55
2023/06/04 05:38:44;;;;;;;2.23;1.90;;;;;;;;;;5073588;28;20199;-54
2023/06/04 05:41:11;;;;;;;2.17;1.70;;;;;;;;;;5073281;28;20200;-53
2023/06/04 05:43:38;;;;;;;2.97;1.73;;;;;;;;;;5073438;28;20199;-53
2023/06/04 05:46:06;;;;;;;2.20;2.00;;;;;;;;;;5073355;28;20203;-53
2023/06/04 05:48:33;;;;;;;1.70;1.60;;;;;;;;;;5073116;28;20195;-53
2023/06/04 05:50:59;;;;;;;2.00;1.70;;;;;;;;;;5073083;28;20211;-53
2023/06/04 05:53:25;;;;;;;3.33;1.60;;;;;;;;;;5072855;28;20230;-54
2023/06/04 05:55:51;;;;;;;1.60;1.50;;;;;;;;;;5073133;28;20665;-54
2023/06/04 05:58:17;;;;;;;3.27;1.80;;;;;;;;;;5073000;28;20207;-54
2023/06/04 06:00:44;;;;;;;2.97;1.57;;;;;;;;;;5072928;28;20192;-54
2023/06/04 06:03:10;;;;;;;3.50;1.87;;;;;;;;;;5072753;28;20723;-54
2023/06/04 06:05:37;;;;;;;1.60;1.50;;;;;;;;;;5072849;28;20220;-54
2023/06/04 06:08:04;;;;;;;2.20;1.53;;;;;;;;;;5072835;28;20204;-54
2023/06/04 06:10:31;;;;;;;1.80;1.70;;;;;;;;;;5072460;28;20287;-54
2023/06/04 06:12:56;;;;;;;2.20;1.63;;;;;;;;;;5072481;28;20232;-54
2023/06/04 06:15:23;;;;;;;1.73;1.60;;;;;;;;;;5072137;28;20203;-54
2023/06/04 06:17:49;;;;;;;1.50;1.40;;;;;;;;;;5072729;28;20241;-54
2023/06/04 06:20:17;;;;;;;1.40;1.30;;;;;;;;;;5072410;28;20654;-54
2023/06/04 06:22:45;;;;;;;1.87;1.37;;;;;;;;;;5072279;28;20565;-54
2023/06/04 06:25:15;;;;;;;1.33;1.23;;;;;;;;;;5072234;28;20227;-54
2023/06/04 06:27:41;;;;;;;1.40;1.30;;;;;;;;;;5072634;28;20283;-54
2023/06/04 06:30:08;;;;;;;3.00;1.50;;;;;;;;;;5072457;28;20279;-54
2023/06/04 06:32:34;;;;;;;1.37;1.27;;;;;;;;;;5072371;28;20223;-54
2023/06/04 06:35:01;;;;;;;1.33;1.20;;;;;;;;;;5072262;28;20191;-54
2023/06/04 06:37:27;;;;;;;1.07;1.07;;;;;;;;;;5071954;28;20195;-54
2023/06/04 06:39:54;;;;;;;2.23;1.30;;;;;;;;;;5072288;28;20205;-54
2023/06/04 06:42:20;;;;;;;1.50;1.40;;;;;;;;;;5072159;28;20677;-54
2023/06/04 06:44:46;;;;;;;3.10;1.40;;;;;;;;;;5072068;28;20193;-54
2023/06/04 06:47:13;;;;;;;1.30;1.20;;;;;;;;;;5071890;28;20605;-54
2023/06/04 06:49:39;;;;;;;2.43;1.50;;;;;;;;;;5072195;28;20257;-54
2023/06/04 06:52:05;;;;;;;3.00;1.50;;;;;;;;;;5071896;28;20774;-54
2023/06/04 06:54:31;;;;;;;1.40;1.30;;;;;;;;;;5071918;28;20179;-54
2023/06/04 06:56:59;;;;;;;2.03;1.50;;;;;;;;;;5071917;28;20205;-54
2023/06/04 06:59:25;;;;;;;2.30;1.20;;;;;;;;;;5071678;28;20209;-54
2023/06/04 07:01:51;;;;;;;2.03;1.40;;;;;;;;;;5071927;28;20241;-54
2023/06/04 07:04:17;;;;;;;1.70;1.27;;;;;;;;;;5071615;28;20221;-54
2023/06/04 07:06:43;;;;;;;3.30;1.40;;;;;;;;;;5071864;28;20227;-54
2023/06/04 07:09:09;;;;;;;1.63;1.30;;;;;;;;;;5071441;28;20566;-54
2023/06/04 07:11:36;;;;;;;1.47;1.37;;;;;;;;;;5071583;28;20268;-54
2023/06/04 07:14:03;;;;;;;2.63;1.40;;;;;;;;;;5071635;28;20289;-54
2023/06/04 07:16:29;;;;;;;1.63;1.30;;;;;;;;;;5071622;28;20204;-54
2023/06/04 07:18:55;;;;;;;3.73;1.30;;;;;;;;;;5071602;28;20559;-54
2023/06/04 07:21:23;;;;;;;1.93;1.40;;;;;;;;;;5071420;28;20199;-54
2023/06/04 07:23:50;;;;;;;1.63;1.33;;;;;;;;;;5071467;28;20250;-54
2023/06/04 07:26:17;;;;;;;2.80;1.20;;;;;;;;;;5070419;28;20230;-54
2023/06/04 07:28:43;;;;;;;1.53;1.20;;;;;;;;;;5071341;28;20226;-54
2023/06/04 07:31:10;;;;;;;1.17;1.07;;;;;;;;;;5071129;28;20195;-54
2023/06/04 07:33:42;;;;;;;1.70;1.20;;;;;;;;;;5071320;28;20230;-56
2023/06/04 07:36:09;;;;;;;1.43;0.97;;;;;;;;;;5071226;28;20195;-54
2023/06/04 07:38:35;;;;;;;1.07;1.00;;;;;;;;;;5071434;28;20196;-54
2023/06/04 07:41:01;;;;;;;1.57;1.30;;;;;;;;;;5071436;28;20282;-54
2023/06/04 07:43:27;;;;;;;1.50;1.40;;;;;;;;;;5071079;28;20295;-54
2023/06/04 07:45:53;;;;;;;3.10;1.20;;;;;;;;;;5071162;28;20547;-54
2023/06/04 07:48:20;;;;;;;1.30;1.00;;;;;;;;;;5071465;28;20620;-55
2023/06/04 07:50:46;;;;;;;1.37;1.10;;;;;;;;;;5071065;28;20227;-54
2023/06/04 07:53:12;;;;;;;1.60;1.20;;;;;;;;;;5070922;28;20353;-54
2023/06/04 07:55:38;;;;;;;1.50;1.20;;;;;;;;;;5071189;28;20662;-56
2023/06/04 07:58:04;;;;;;;1.13;0.87;;;;;;;;;;5071191;28;20203;-55
2023/06/04 08:00:31;;;;;;;1.33;1.17;;;;;;;;;;5070867;28;20665;-54
2023/06/04 08:02:57;;;;;;;5.63;1.30;;;;;;;;;;5070947;28;20761;-55
2023/06/04 08:05:24;;;;;;;1.93;1.40;;;;;;;;;;5070937;28;20223;-55
2023/06/04 08:07:50;;;;;;;3.20;1.40;;;;;;;;;;5071086;28;20204;-55
2023/06/04 08:10:16;;;;;;;2.13;1.20;;;;;;;;;;5070821;28;20680;-55
2023/06/04 08:12:42;;;;;;;2.80;1.30;;;;;;;;;;5070894;28;20227;-55
2023/06/04 08:15:08;;;;;;;1.50;1.03;;;;;;;;;;5069535;28;20619;-56
2023/06/04 08:17:35;;;;;;;1.30;1.20;;;;;;;;;;5071112;28;20207;-55
2023/06/04 08:20:01;;;;;;;2.10;1.17;;;;;;;;;;5070999;28;20192;-55
2023/06/04 08:22:29;;;;;;;1.57;1.40;;;;;;;;;;5070865;28;20492;-55
2023/06/04 08:24:55;;;;;;;1.20;1.10;;;;;;;;;;5070690;28;20697;-56
2023/06/04 08:27:21;;;;;;;2.17;1.03;;;;;;;;;;5070906;28;20218;-55
2023/06/04 08:29:47;;;;;;;1.23;1.10;;;;;;;;;;5070839;28;20229;-55
2023/06/04 08:32:13;;;;;;;1.43;1.10;;;;;;;;;;5070539;28;20236;-55
2023/06/04 08:34:40;;;;;;;1.10;1.00;;;;;;;;;;5070644;28;20809;-55
2023/06/04 08:37:06;;;;;;;1.50;1.17;;;;;;;;;;5071185;28;20201;-55
2023/06/04 08:39:34;;;;;;;1.70;1.30;;;;;;;;;;5074542;28;20205;-55
2023/06/04 08:42:01;;;;;;;1.40;1.17;;;;;;;;;;5074606;28;20281;-55
2023/06/04 08:44:29;;;;;;;1.40;1.30;;;;;;;;;;5074368;28;20296;-55
2023/06/04 08:47:02;;;;;;;2.23;1.23;;;;;;;;;;5074382;28;20193;-55
2023/06/04 08:49:30;;;;;;;1.30;0.97;;;;;;;;;;5074223;28;20259;-55
2023/06/04 08:51:56;;;;;;;2.23;1.20;;;;;;;;;;5074291;28;20217;-55
2023/06/04 08:54:22;;;;;;;1.40;1.20;;;;;;;;;;5074158;28;20210;-56
2023/06/04 08:56:51;;;;;;;2.13;1.40;;;;;;;;;;5074369;28;20248;-55
2023/06/04 08:59:17;;;;;;;1.30;1.20;;;;;;;;;;5074075;28;20211;-55
2023/06/04 09:01:44;;;;;;;2.17;1.13;;;;;;;;;;5074178;28;20199;-55
2023/06/04 09:04:12;;;;;;;2.30;1.27;;;;;;;;;;5074204;28;20348;-55
2023/06/04 09:06:39;;;;;;;2.10;1.13;;;;;;;;;;5074021;28;20249;-54
2023/06/04 09:09:09;;;;;;;3.07;1.20;;;;;;;;;;5073988;28;20546;-54
2023/06/04 09:11:36;;;;;;;1.13;1.03;;;;;;;;;;5073535;28;20210;-54
2023/06/04 09:14:04;;;;;;;1.87;1.10;;;;;;;;;;5073793;28;20196;-54
2023/06/04 09:16:37;;;;;;;1.70;1.20;;;;;;;;;;5073630;28;20287;-54
2023/06/04 09:19:04;;;;;;;2.43;1.07;;;;;;;;;;5073722;28;20265;-54
2023/06/04 09:21:30;;;;;;;0.90;0.90;;;;;;;;;;5073513;28;20195;-54
2023/06/04 09:23:58;;;;;;;1.90;1.20;;;;;;;;;;5073300;28;20731;-54
2023/06/04 09:26:24;;;;;;;1.40;1.03;;;;;;;;;;5073513;28;20236;-54
2023/06/04 09:28:52;;;;;;;1.33;1.10;;;;;;;;;;5073706;28;20203;-54
2023/06/04 09:31:22;;;;;;;2.60;1.30;;;;;;;;;;5073426;28;20200;-54
2023/06/04 09:33:48;;;;;;;1.57;1.00;;;;;;;;;;5073454;28;20284;-54
2023/06/04 09:36:15;;;;;;;1.37;1.10;;;;;;;;;;5073240;28;20295;-55
2023/06/04 09:38:41;;;;;;;1.40;0.83;;;;;;;;;;5073349;28;20201;-55
2023/06/04 09:41:11;;;;;;;1.93;0.97;;;;;;;;;;5073319;28;20194;-54
2023/06/04 09:43:37;;;;;;;1.00;0.90;;;;;;;;;;5073249;28;20267;-54
2023/06/04 09:46:10;;;;;;;1.30;1.10;;;;;;;;;;5073198;28;20206;-54
2023/06/04 09:48:38;;;;;;;1.40;1.13;;;;;;;;;;5072785;28;20205;-54
2023/06/04 09:51:08;;;;;;;1.10;1.00;;;;;;;;;;5072947;28;20214;-56
2023/06/04 09:53:34;;;;;;;1.67;1.10;;;;;;;;;;5073028;28;20919;-55
2023/06/04 09:56:01;;;;;;;1.23;1.10;;;;;;;;;;5072916;28;20190;-55
2023/06/04 09:58:27;;;;;;;2.53;1.50;;;;;;;;;;5072839;28;20550;-55
2023/06/04 10:00:54;;;;;;;1.40;1.30;;;;;;;;;;5072826;28;20677;-55
2023/06/04 10:03:23;;;;;;;1.33;1.10;;;;;;;;;;5072931;28;20281;-55
2023/06/04 10:05:51;;;;;;;1.83;1.37;;;;;;;;;;5072816;28;20260;-55
2023/06/04 10:08:18;;;;;;;1.40;1.13;;;;;;;;;;5071403;28;20212;-55
2023/06/04 10:10:46;;;;;;;2.60;1.30;;;;;;;;;;5071570;28;20675;-55
2023/06/04 10:13:15;;;;;;;2.13;1.30;;;;;;;;;;5071172;28;20430;-55
2023/06/04 10:15:41;;;;;;;1.58;1.20;;;;;;;;;;5071378;28;20466;-55
2023/06/04 10:18:07;;;;;;;1.50;1.30;;;;;;;;;;5071390;28;20400;-55
2023/06/04 10:20:34;;;;;;;2.87;1.13;;;;;;;;;;5072465;28;20442;-55
2023/06/04 10:23:01;;;;;;;1.40;1.10;;;;;;;;;;5072302;28;20654;-55
2023/06/04 10:25:28;;;;;;;1.80;1.40;;;;;;;;;;5072105;28;20242;-55
2023/06/04 10:27:54;;;;;;;2.05;1.27;;;;;;;;;;5071100;28;20419;-55
2023/06/04 10:30:20;;;;;;;2.03;1.25;;;;;;;;;;5071079;28;20480;-55
2023/06/04 10:32:46;;;;;;;1.93;1.30;;;;;;;;;;5070882;28;20917;-55
2023/06/04 10:35:14;;;;;;;2.60;1.40;;;;;;;;;;5071007;28;20482;-55
2023/06/04 10:37:40;;;;;;;1.27;1.17;;;;;;;;;;5071947;28;20201;-55
2023/06/04 10:40:08;;;;;;;1.90;1.30;;;;;;;;;;5072119;28;20252;-55
2023/06/04 10:42:38;;;;;;;2.43;1.30;;;;;;;;;;5072098;28;20204;-55
2023/06/04 10:45:05;;;;;;;2.63;1.33;;;;;;;;;;5070872;28;20401;-55
2023/06/04 10:47:33;;;;;;;1.17;1.07;;;;;;;;;;5071938;28;20211;-55
2023/06/04 10:50:07;;;;;;;1.53;1.20;;;;;;;;;;5071895;28;20208;-54
2023/06/04 10:52:33;;;;;;;1.77;1.30;;;;;;;;;;5071782;28;20698;-55
2023/06/04 10:55:03;;;;;;;1.40;1.30;;;;;;;;;;5071682;28;20715;-55
2023/06/04 10:57:31;;;;;;;2.13;1.17;;;;;;;;;;5071781;28;20202;-54
2023/06/04 10:59:58;;;;;;;3.60;1.00;;;;;;;;;;5071709;28;20224;-55
2023/06/04 11:02:24;;;;;;;1.10;1.00;;;;;;;;;;5071630;28;20228;-55
2023/06/04 11:05:01;;;;;;;2.03;1.27;;;;;;;;;;5071856;28;20309;-55
2023/06/04 11:07:27;;;;;;;1.23;1.13;;;;;;;;;;5071618;28;20363;-55
2023/06/04 11:09:53;;;;;;;5.63;1.30;;;;;;;;;;5071667;28;20286;-55
2023/06/04 11:12:19;;;;;;;1.93;1.10;;;;;;;;;;5071545;28;20320;-55
2023/06/04 11:14:55;;;;;;;3.40;1.30;;;;;;;;;;5071657;28;20196;-55
2023/06/04 11:17:21;;;;;;;1.83;1.40;;;;;;;;;;5071517;28;20204;-55
2023/06/04 11:19:47;;;;;;;2.00;1.20;;;;;;;;;;5071471;28;20277;-56
2023/06/04 11:22:13;;;;;;;3.27;0.93;;;;;;;;;;5071319;28;20699;-56
2023/06/04 11:24:39;;;;;;;2.33;1.27;;;;;;;;;;5071247;28;20321;-56
2023/06/04 11:27:05;;;;;;;1.17;1.07;;;;;;;;;;5071545;28;20241;-55
2023/06/04 11:29:33;;;;;;;2.63;1.10;;;;;;;;;;5071132;28;20245;-55
2023/06/04 11:32:00;;;;;;;2.70;1.13;;;;;;;;;;5071169;28;20212;-55
2023/06/04 11:34:26;;;;;;;2.10;1.00;;;;;;;;;;5071205;28;20202;-55
2023/06/04 11:36:55;;;;;;;1.43;1.13;;;;;;;;;;5071267;28;20281;-56
2023/06/04 11:39:21;;;;;;;1.73;1.10;;;;;;;;;;5071268;28;20219;-55
2023/06/04 11:41:47;;;;;;;1.50;1.40;;;;;;;;;;5071345;28;20251;-56
2023/06/04 11:44:14;;;;;;;4.30;1.40;;;;;;;;;;5071082;28;20292;-56
2023/06/04 11:46:40;;;;;;;1.53;1.20;;;;;;;;;;5071022;28;20284;-55
2023/06/04 11:49:08;;;;;;;2.80;1.17;;;;;;;;;;5071288;28;20207;-56
2023/06/04 11:51:34;;;;;;;2.93;1.37;;;;;;;;;;5071023;28;20214;-55
2023/06/04 11:54:01;;;;;;;2.37;1.20;;;;;;;;;;5070971;28;20233;-55
2023/06/04 11:56:27;;;;;;;2.30;1.37;;;;;;;;;;5070853;28;20655;-55
2023/06/04 11:58:54;;;;;;;1.47;1.37;;;;;;;;;;5071139;28;20203;-55
2023/06/04 12:01:20;;;;;;;2.03;1.20;;;;;;;;;;5071036;28;20205;-55
2023/06/04 12:03:46;;;;;;;1.33;1.23;;;;;;;;;;5070872;28;20189;-54
2023/06/04 12:06:18;;;;;;;1.97;1.33;;;;;;;;;;5070750;28;20192;-54
2023/06/04 12:08:46;;;;;;;2.93;1.40;;;;;;;;;;5070881;28;20579;-54
2023/06/04 12:11:20;;;;;;;1.60;1.30;;;;;;;;;;5070680;28;20954;-54
2023/06/04 12:13:46;;;;;;;2.07;1.07;;;;;;;;;;5073770;28;20224;-54
2023/06/04 12:16:15;;;;;;;1.77;1.40;;;;;;;;;;5074863;28;20685;-54
2023/06/04 12:18:41;;;;;;;2.13;1.10;;;;;;;;;;5074747;28;20197;-54
2023/06/04 12:21:19;;;;;;;2.47;1.27;;;;;;;;;;5074958;28;20248;-54
2023/06/04 12:23:45;;;;;;;1.67;1.30;;;;;;;;;;5074509;28;20240;-53
2023/06/04 12:26:28;;;;;;;2.80;1.20;;;;;;;;;;5074754;28;20197;-54
2023/06/04 12:28:58;;;;;;;1.43;1.20;;;;;;;;;;5074738;28;20196;-55
2023/06/04 12:31:24;;;;;;;1.40;1.27;;;;;;;;;;5074599;28;20242;-54
2023/06/04 12:33:50;;;;;;;1.57;1.20;;;;;;;;;;5074700;28;20290;-55
2023/06/04 12:36:18;;;;;;;1.20;1.10;;;;;;;;;;5074353;28;20682;-55
2023/06/04 12:38:44;;;;;;;2.17;1.43;;;;;;;;;;5074439;28;20276;-56
2023/06/04 12:41:10;;;;;;;1.40;1.30;;;;;;;;;;5074377;28;20223;-55
2023/06/04 12:43:37;;;;;;;2.03;1.63;;;;;;;;;;5074434;28;20664;-56
2023/06/04 12:46:03;;;;;;;2.23;1.30;;;;;;;;;;5074395;28;20605;-55
2023/06/04 12:48:29;;;;;;;1.50;1.23;;;;;;;;;;5074191;28;20198;-55
2023/06/04 12:50:55;;;;;;;4.57;1.43;;;;;;;;;;5074085;28;20230;-55
2023/06/04 12:53:22;;;;;;;3.17;1.40;;;;;;;;;;5074297;28;20224;-55
2023/06/04 12:55:48;;;;;;;2.43;1.30;;;;;;;;;;5074299;28;20220;-55
2023/06/04 12:58:14;;;;;;;1.23;1.13;;;;;;;;;;5073805;28;20206;-55
2023/06/04 13:00:40;;;;;;;1.57;1.10;;;;;;;;;;5073735;28;20208;-55
2023/06/04 13:03:09;;;;;;;4.80;3.37;;;;;;;;;;5074022;28;20198;-55
2023/06/04 13:05:37;;;;;;;3.40;3.10;;;;;;;;;;5073713;28;20218;-55
2023/06/04 13:08:03;;;;;;;2.60;1.33;;;;;;;;;;5073960;28;20235;-55
2023/06/04 13:10:30;;;;;;;3.07;1.70;;;;;;;;;;5073690;28;20216;-55
2023/06/04 13:12:57;;;;;;;1.40;1.10;;;;;;;;;;5073486;28;20692;-55
2023/06/04 13:15:23;;;;;;;3.30;1.60;;;;;;;;;;5073671;28;20221;-55
2023/06/04 13:17:49;;;;;;;1.40;1.30;;;;;;;;;;5073736;28;20489;-54
2023/06/04 13:20:15;;;;;;;3.73;1.40;;;;;;;;;;5073509;28;20227;-55
2023/06/04 13:22:43;;;;;;;1.30;1.20;;;;;;;;;;5073495;28;20197;-54
2023/06/04 13:25:09;;;;;;;2.30;1.40;;;;;;;;;;5072089;28;20238;-55
2023/06/04 13:27:37;;;;;;;1.57;1.17;;;;;;;;;;5073535;28;20286;-55
2023/06/04 13:30:03;;;;;;;2.00;1.30;;;;;;;;;;5073401;28;20202;-54
2023/06/04 13:32:29;;;;;;;1.33;1.03;;;;;;;;;;5073033;28;20218;-55
2023/06/04 13:34:55;;;;;;;1.40;1.30;;;;;;;;;;5073149;28;20210;-55
2023/06/04 13:37:21;;;;;;;3.50;1.40;;;;;;;;;;5073340;28;20199;-55
2023/06/04 13:39:47;;;;;;;1.30;1.20;;;;;;;;;;5073363;28;20225;-55
2023/06/04 13:42:13;;;;;;;1.70;1.33;;;;;;;;;;5073110;28;20194;-55
2023/06/04 13:44:40;;;;;;;1.77;1.23;;;;;;;;;;5073100;28;20749;-55
2023/06/04 13:47:06;;;;;;;3.00;1.40;;;;;;;;;;5073278;28;20252;-55
2023/06/04 13:49:33;;;;;;;2.13;1.50;;;;;;;;;;5073088;28;20198;-56
2023/06/04 13:51:59;;;;;;;1.40;1.30;;;;;;;;;;5072944;28;20204;-54
2023/06/04 13:54:26;;;;;;;2.17;1.40;;;;;;;;;;5072612;28;20238;-54
2023/06/04 13:56:52;;;;;;;2.67;1.57;;;;;;;;;;5073121;28;20198;-54
2023/06/04 13:59:18;;;;;;;1.60;1.40;;;;;;;;;;5072799;28;20240;-55
2023/06/04 14:01:45;;;;;;;2.27;1.40;;;;;;;;;;5072739;28;20426;-54
2023/06/04 14:04:11;;;;;;;1.90;1.40;;;;;;;;;;5072723;28;20221;-54
2023/06/04 14:06:37;;;;;;;3.77;1.30;;;;;;;;;;5072642;28;20291;-54
2023/06/04 14:09:03;;;;;;;1.30;1.20;;;;;;;;;;5072747;28;20623;-55
2023/06/04 14:11:29;;;;;;;1.37;1.27;;;;;;;;;;5072417;28;20665;-54
2023/06/04 14:13:56;;;;;;;2.00;1.37;;;;;;;;;;5072429;28;20300;-54
2023/06/04 14:16:22;;;;;;;2.27;1.20;;;;;;;;;;5072830;28;20184;-54
2023/06/04 14:18:49;;;;;;;2.03;1.37;;;;;;;;;;5072519;28;20206;-54
2023/06/04 14:21:15;;;;;;;1.50;1.40;;;;;;;;;;5072355;28;20229;-54
2023/06/04 14:23:41;;;;;;;1.70;1.50;;;;;;;;;;5072229;28;20234;-54
2023/06/04 14:26:07;;;;;;;4.20;1.50;;;;;;;;;;5072292;28;20290;-54
2023/06/04 14:28:33;;;;;;;2.80;1.47;;;;;;;;;;5072240;28;20209;-54
2023/06/04 14:30:59;;;;;;;3.33;1.43;;;;;;;;;;5072329;28;20223;-54
2023/06/04 14:33:25;;;;;;;1.57;1.37;;;;;;;;;;5071995;28;20792;-55
2023/06/04 14:35:52;;;;;;;3.20;1.40;;;;;;;;;;5071870;28;20211;-54
2023/06/04 14:38:18;;;;;;;1.80;1.40;;;;;;;;;;5072168;28;20211;-54
2023/06/04 14:40:45;;;;;;;1.97;1.30;;;;;;;;;;5072192;28;20207;-54